Alyth, United Kingdom
Current Conditions -  °F | °C
As of 8:20 PM on Sunday 25 Jan 2015 (Local Time) from EGPN Reporting Station
Broken Clouds Broken Clouds  
Wind Chill: 40°   Ceiling: 4400
Heat Index: 46°   Visibility: 6mi
Dew Point: 43°   Wind: 14mph
Humidity: 87%   Direction: 270°W
Pressure: 29.91"   Gusts: NA
Location:  56.62°N, 3.23°W
Report Text: EGPN 252020Z 27012KT 9999 BKN044 08/06 Q1013
Loading
Personal Weather Stations






























Interactive Weather Map New forecast layout! Learn more

10-Day Weather Forecast

Advertisements
Track Severe Weather on mobile